sensor_id;sensor_type;location;lat;lon;timestamp;pressure;altitude;pressure_sealevel;temperature;humidity
250;BME280;109;19.806;-70.704;2023-05-07T00:01:37;101400.72;;;26.84;64.84
250;BME280;109;19.806;-70.704;2023-05-07T00:04:04;101399.13;;;26.80;64.54
250;BME280;109;19.806;-70.704;2023-05-07T00:06:32;101401.03;;;26.78;64.92
250;BME280;109;19.806;-70.704;2023-05-07T00:08:59;101408.13;;;26.79;64.88
250;BME280;109;19.806;-70.704;2023-05-07T00:11:27;101420.31;;;26.69;64.86
250;BME280;109;19.806;-70.704;2023-05-07T00:13:54;101421.97;;;26.72;65.08
250;BME280;109;19.806;-70.704;2023-05-07T00:16:21;101423.69;;;26.73;65.25
250;BME280;109;19.806;-70.704;2023-05-07T00:18:47;101425.94;;;26.65;64.82
250;BME280;109;19.806;-70.704;2023-05-07T00:21:14;101438.56;;;26.63;64.66
250;BME280;109;19.806;-70.704;2023-05-07T00:23:40;101440.84;;;26.70;65.05
250;BME280;109;19.806;-70.704;2023-05-07T00:26:07;101441.09;;;26.66;65.07
250;BME280;109;19.806;-70.704;2023-05-07T00:28:33;101441.78;;;26.69;65.41
250;BME280;109;19.806;-70.704;2023-05-07T00:31:00;101452.13;;;26.60;65.17
250;BME280;109;19.806;-70.704;2023-05-07T00:33:26;101447.69;;;26.59;65.58
250;BME280;109;19.806;-70.704;2023-05-07T00:35:53;101454.81;;;26.60;66.01
250;BME280;109;19.806;-70.704;2023-05-07T00:38:22;101451.97;;;26.63;65.11
250;BME280;109;19.806;-70.704;2023-05-07T00:40:49;101446.53;;;26.64;65.36
250;BME280;109;19.806;-70.704;2023-05-07T00:43:17;101462.66;;;26.64;65.04
250;BME280;109;19.806;-70.704;2023-05-07T00:45:43;101460.72;;;26.66;65.09
250;BME280;109;19.806;-70.704;2023-05-07T00:48:10;101469.75;;;26.65;64.99
250;BME280;109;19.806;-70.704;2023-05-07T00:50:37;101469.75;;;26.65;64.94
250;BME280;109;19.806;-70.704;2023-05-07T00:53:04;101459.97;;;26.64;64.96
250;BME280;109;19.806;-70.704;2023-05-07T00:55:37;101457.50;;;26.60;65.15
250;BME280;109;19.806;-70.704;2023-05-07T00:58:04;101456.72;;;26.75;65.46
250;BME280;109;19.806;-70.704;2023-05-07T01:00:37;101453.16;;;26.74;65.09
250;BME280;109;19.806;-70.704;2023-05-07T01:03:03;101462.97;;;26.75;65.19
250;BME280;109;19.806;-70.704;2023-05-07T01:05:38;101465.31;;;26.81;65.34
250;BME280;109;19.806;-70.704;2023-05-07T01:08:05;101470.38;;;26.88;65.20
250;BME280;109;19.806;-70.704;2023-05-07T01:10:38;101470.38;;;26.88;64.56
250;BME280;109;19.806;-70.704;2023-05-07T01:13:15;101465.31;;;26.81;64.94
250;BME280;109;19.806;-70.704;2023-05-07T01:15:43;101463.03;;;26.74;64.71
250;BME280;109;19.806;-70.704;2023-05-07T01:18:16;101463.34;;;26.68;64.71
250;BME280;109;19.806;-70.704;2023-05-07T01:20:42;101461.53;;;26.68;64.84
250;BME280;109;19.806;-70.704;2023-05-07T01:23:16;101453.47;;;26.68;64.95
250;BME280;109;19.806;-70.704;2023-05-07T01:25:50;101462.63;;;26.81;64.74
250;BME280;109;19.806;-70.704;2023-05-07T01:28:25;101458.53;;;26.74;64.14
250;BME280;109;19.806;-70.704;2023-05-07T01:31:01;101465.31;;;26.81;64.44
250;BME280;109;19.806;-70.704;2023-05-07T01:33:35;101468.94;;;26.80;64.17
250;BME280;109;19.806;-70.704;2023-05-07T01:36:05;101472.13;;;26.71;64.62
250;BME280;109;19.806;-70.704;2023-05-07T01:38:47;101471.47;;;26.66;64.88
250;BME280;109;19.806;-70.704;2023-05-07T01:41:30;101466.66;;;26.56;64.68
250;BME280;109;19.806;-70.704;2023-05-07T01:43:58;101470.84;;;26.61;64.94
250;BME280;109;19.806;-70.704;2023-05-07T01:46:32;101474.69;;;26.56;65.09
250;BME280;109;19.806;-70.704;2023-05-07T01:48:59;101475.97;;;26.48;65.21
250;BME280;109;19.806;-70.704;2023-05-07T01:51:33;101479.81;;;26.43;65.15
250;BME280;109;19.806;-70.704;2023-05-07T01:54:00;101473.69;;;26.58;65.13
250;BME280;109;19.806;-70.704;2023-05-07T01:56:34;101483.94;;;26.67;64.44
250;BME280;109;19.806;-70.704;2023-05-07T01:59:01;101479.88;;;26.77;64.33
250;BME280;109;19.806;-70.704;2023-05-07T02:01:35;101478.22;;;26.75;64.36
250;BME280;109;19.806;-70.704;2023-05-07T02:04:02;101469.28;;;26.74;64.26
250;BME280;109;19.806;-70.704;2023-05-07T02:06:35;101469.56;;;26.68;63.85
250;BME280;109;19.806;-70.704;2023-05-07T02:09:04;101475.28;;;26.62;63.33
250;BME280;109;19.806;-70.704;2023-05-07T02:11:41;101474.47;;;26.60;63.32
250;BME280;109;19.806;-70.704;2023-05-07T02:14:07;101479.53;;;26.66;63.69
250;BME280;109;19.806;-70.704;2023-05-07T02:16:41;101478.84;;;26.63;63.42
250;BME280;109;19.806;-70.704;2023-05-07T02:19:11;101482.13;;;26.50;63.04
250;BME280;109;19.806;-70.704;2023-05-07T02:21:44;101467.91;;;26.48;62.88
250;BME280;109;19.806;-70.704;2023-05-07T02:24:18;101470.66;;;26.47;62.87
250;BME280;109;19.806;-70.704;2023-05-07T02:26:52;101473.00;;;26.36;63.30
250;BME280;109;19.806;-70.704;2023-05-07T02:29:18;101471.84;;;26.41;63.30
250;BME280;109;19.806;-70.704;2023-05-07T02:31:53;101470.31;;;26.36;63.17
250;BME280;109;19.806;-70.704;2023-05-07T02:34:19;101471.09;;;26.38;63.19
250;BME280;109;19.806;-70.704;2023-05-07T02:36:53;101470.97;;;26.41;62.82
250;BME280;109;19.806;-70.704;2023-05-07T02:39:39;101463.56;;;26.46;63.42
250;BME280;109;19.806;-70.704;2023-05-07T02:42:13;101476.03;;;26.47;62.94
250;BME280;109;19.806;-70.704;2023-05-07T02:44:39;101467.19;;;26.45;62.75
250;BME280;109;19.806;-70.704;2023-05-07T02:47:14;101474.50;;;26.41;62.81
250;BME280;109;19.806;-70.704;2023-05-07T02:49:43;101480.31;;;26.51;62.74
250;BME280;109;19.806;-70.704;2023-05-07T02:52:16;101480.53;;;26.46;63.16
250;BME280;109;19.806;-70.704;2023-05-07T02:54:42;101481.25;;;26.50;62.87
250;BME280;109;19.806;-70.704;2023-05-07T02:57:16;101483.69;;;26.55;62.80
250;BME280;109;19.806;-70.704;2023-05-07T02:59:43;101480.13;;;26.54;62.66
250;BME280;109;19.806;-70.704;2023-05-07T03:02:17;101484.28;;;26.61;62.50
250;BME280;109;19.806;-70.704;2023-05-07T03:04:43;101482.53;;;26.60;62.51
250;BME280;109;19.806;-70.704;2023-05-07T03:07:17;101474.22;;;26.47;62.09
250;BME280;109;19.806;-70.704;2023-05-07T03:09:43;101479.44;;;26.50;62.24
250;BME280;109;19.806;-70.704;2023-05-07T03:12:17;101477.63;;;26.51;62.61
250;BME280;109;19.806;-70.704;2023-05-07T03:14:43;101471.69;;;26.44;62.28
250;BME280;109;19.806;-70.704;2023-05-07T03:17:17;101473.56;;;26.42;62.42
250;BME280;109;19.806;-70.704;2023-05-07T03:19:43;101470.81;;;26.44;62.66
250;BME280;109;19.806;-70.704;2023-05-07T03:22:24;101465.59;;;26.41;62.14
250;BME280;109;19.806;-70.704;2023-05-07T03:24:58;101458.63;;;26.37;62.08
250;BME280;109;19.806;-70.704;2023-05-07T03:27:24;101449.50;;;26.41;62.19
250;BME280;109;19.806;-70.704;2023-05-07T03:29:58;101451.41;;;26.39;62.53
250;BME280;109;19.806;-70.704;2023-05-07T03:32:25;101452.47;;;26.35;62.99
250;BME280;109;19.806;-70.704;2023-05-07T03:34:58;101452.69;;;26.30;62.98
250;BME280;109;19.806;-70.704;2023-05-07T03:37:25;101453.69;;;26.28;62.99
250;BME280;109;19.806;-70.704;2023-05-07T03:39:58;101451.81;;;26.30;62.99
250;BME280;109;19.806;-70.704;2023-05-07T03:42:45;101445.22;;;26.37;62.77
250;BME280;109;19.806;-70.704;2023-05-07T03:45:22;101449.59;;;26.39;62.86
250;BME280;109;19.806;-70.704;2023-05-07T03:47:57;101442.38;;;26.40;62.80
250;BME280;109;19.806;-70.704;2023-05-07T03:50:31;101446.16;;;26.36;62.29
250;BME280;109;19.806;-70.704;2023-05-07T03:52:58;101435.63;;;26.31;62.36
250;BME280;109;19.806;-70.704;2023-05-07T03:55:34;101429.53;;;26.28;62.40
250;BME280;109;19.806;-70.704;2023-05-07T03:58:08;101425.28;;;26.24;62.47
250;BME280;109;19.806;-70.704;2023-05-07T04:00:34;101419.78;;;26.27;62.84
250;BME280;109;19.806;-70.704;2023-05-07T04:03:29;101411.72;;;26.27;62.53
250;BME280;109;19.806;-70.704;2023-05-07T04:06:02;101417.94;;;26.27;62.97
250;BME280;109;19.806;-70.704;2023-05-07T04:08:31;101414.31;;;26.28;62.53
250;BME280;109;19.806;-70.704;2023-05-07T04:11:05;101416.44;;;26.22;62.38
250;BME280;109;19.806;-70.704;2023-05-07T04:13:41;101409.47;;;26.17;62.77
250;BME280;109;19.806;-70.704;2023-05-07T04:16:19;101409.81;;;26.11;62.56
250;BME280;109;19.806;-70.704;2023-05-07T04:18:52;101410.59;;;26.13;62.91
250;BME280;109;19.806;-70.704;2023-05-07T04:21:20;101402.31;;;26.18;62.64
250;BME280;109;19.806;-70.704;2023-05-07T04:23:53;101396.00;;;26.19;62.26
250;BME280;109;19.806;-70.704;2023-05-07T04:26:20;101391.72;;;26.15;62.72
250;BME280;109;19.806;-70.704;2023-05-07T04:28:54;101396.69;;;26.05;62.54
250;BME280;109;19.806;-70.704;2023-05-07T04:31:21;101381.38;;;26.07;62.99
250;BME280;109;19.806;-70.704;2023-05-07T04:33:54;101380.97;;;26.15;62.76
250;BME280;109;19.806;-70.704;2023-05-07T04:36:21;101377.28;;;26.17;62.94
250;BME280;109;19.806;-70.704;2023-05-07T04:39:02;101379.03;;;26.19;62.93
250;BME280;109;19.806;-70.704;2023-05-07T04:41:52;101369.25;;;26.17;62.38
250;BME280;109;19.806;-70.704;2023-05-07T04:44:26;101358.34;;;26.21;62.43
250;BME280;109;19.806;-70.704;2023-05-07T04:46:54;101357.72;;;26.15;62.80
250;BME280;109;19.806;-70.704;2023-05-07T04:49:27;101356.63;;;26.20;62.80
250;BME280;109;19.806;-70.704;2023-05-07T04:51:55;101353.28;;;26.14;62.91
250;BME280;109;19.806;-70.704;2023-05-07T04:54:28;101347.78;;;26.17;62.92
250;BME280;109;19.806;-70.704;2023-05-07T04:56:54;101342.34;;;26.19;63.21
250;BME280;109;19.806;-70.704;2023-05-07T04:59:28;101341.63;;;26.15;63.05
250;BME280;109;19.806;-70.704;2023-05-07T05:01:54;101339.09;;;26.12;63.46
250;BME280;109;19.806;-70.704;2023-05-07T05:04:28;101343.34;;;26.16;63.37
250;BME280;109;19.806;-70.704;2023-05-07T05:06:55;101339.00;;;26.14;63.48
250;BME280;109;19.806;-70.704;2023-05-07T05:09:30;101333.56;;;26.15;63.67
250;BME280;109;19.806;-70.704;2023-05-07T05:11:56;101329.00;;;26.17;63.35
250;BME280;109;19.806;-70.704;2023-05-07T05:14:37;101325.69;;;26.12;63.07
250;BME280;109;19.806;-70.704;2023-05-07T05:17:11;101320.34;;;26.12;63.36
250;BME280;109;19.806;-70.704;2023-05-07T05:19:38;101325.44;;;26.17;63.21
250;BME280;109;19.806;-70.704;2023-05-07T05:22:11;101321.88;;;26.16;63.10
250;BME280;109;19.806;-70.704;2023-05-07T05:24:37;101311.00;;;26.20;63.24
250;BME280;109;19.806;-70.704;2023-05-07T05:27:10;101313.75;;;26.18;63.42
250;BME280;109;19.806;-70.704;2023-05-07T05:29:36;101301.28;;;26.17;63.49
250;BME280;109;19.806;-70.704;2023-05-07T05:32:10;101299.81;;;26.11;63.36
250;BME280;109;19.806;-70.704;2023-05-07T05:34:37;101304.22;;;26.12;63.30
250;BME280;109;19.806;-70.704;2023-05-07T05:37:10;101300.75;;;26.10;63.57
250;BME280;109;19.806;-70.704;2023-05-07T05:39:57;101311.72;;;26.06;63.22
250;BME280;109;19.806;-70.704;2023-05-07T05:42:31;101309.09;;;26.04;63.27
250;BME280;109;19.806;-70.704;2023-05-07T05:44:57;101308.88;;;26.09;63.58
250;BME280;109;19.806;-70.704;2023-05-07T05:47:32;101302.50;;;26.11;63.78
250;BME280;109;19.806;-70.704;2023-05-07T05:49:59;101304.53;;;26.06;63.22
250;BME280;109;19.806;-70.704;2023-05-07T05:52:32;101308.88;;;26.09;63.54
250;BME280;109;19.806;-70.704;2023-05-07T05:54:58;101304.38;;;26.09;63.52
250;BME280;109;19.806;-70.704;2023-05-07T05:57:34;101303.38;;;26.12;63.67
250;BME280;109;19.806;-70.704;2023-05-07T06:00:09;101305.41;;;26.07;63.68
250;BME280;109;19.806;-70.704;2023-05-07T06:02:45;101304.06;;;25.98;63.71
250;BME280;109;19.806;-70.704;2023-05-07T06:05:15;101303.34;;;25.95;63.61
250;BME280;109;19.806;-70.704;2023-05-07T06:07:52;101294.56;;;25.91;63.75
250;BME280;109;19.806;-70.704;2023-05-07T06:10:19;101289.06;;;25.94;63.54
250;BME280;109;19.806;-70.704;2023-05-07T06:12:52;101295.44;;;25.92;63.65
250;BME280;109;19.806;-70.704;2023-05-07T06:15:19;101292.03;;;25.88;63.44
250;BME280;109;19.806;-70.704;2023-05-07T06:17:52;101287.09;;;25.79;63.26
250;BME280;109;19.806;-70.704;2023-05-07T06:20:19;101281.88;;;25.76;63.15
250;BME280;109;19.806;-70.704;2023-05-07T06:22:52;101281.13;;;25.74;63.53
250;BME280;109;19.806;-70.704;2023-05-07T06:25:19;101279.53;;;25.70;63.65
250;BME280;109;19.806;-70.704;2023-05-07T06:27:53;101277.66;;;25.72;63.67
250;BME280;109;19.806;-70.704;2023-05-07T06:30:19;101269.69;;;25.70;63.65
250;BME280;109;19.806;-70.704;2023-05-07T06:32:54;101270.47;;;25.72;63.15
250;BME280;109;19.806;-70.704;2023-05-07T06:35:21;101268.66;;;25.73;63.06
250;BME280;109;19.806;-70.704;2023-05-07T06:37:54;101260.84;;;25.68;63.11
250;BME280;109;19.806;-70.704;2023-05-07T06:40:40;101268.47;;;25.76;62.90
250;BME280;109;19.806;-70.704;2023-05-07T06:43:21;101268.47;;;25.76;63.06
250;BME280;109;19.806;-70.704;2023-05-07T06:46:12;101266.19;;;25.68;62.28
250;BME280;109;19.806;-70.704;2023-05-07T06:48:46;101266.94;;;25.72;62.29
250;BME280;109;19.806;-70.704;2023-05-07T06:51:13;101264.78;;;25.78;62.42
250;BME280;109;19.806;-70.704;2023-05-07T06:53:47;101255.06;;;25.76;62.47
250;BME280;109;19.806;-70.704;2023-05-07T06:56:14;101258.41;;;25.81;61.98
250;BME280;109;19.806;-70.704;2023-05-07T06:58:47;101261.97;;;25.81;62.10
250;BME280;109;19.806;-70.704;2023-05-07T07:01:14;101262.03;;;25.80;62.55
250;BME280;109;19.806;-70.704;2023-05-07T07:03:47;101255.34;;;25.71;62.66
250;BME280;109;19.806;-70.704;2023-05-07T07:06:14;101258.94;;;25.70;62.30
250;BME280;109;19.806;-70.704;2023-05-07T07:08:47;101260.56;;;25.56;62.06
250;BME280;109;19.806;-70.704;2023-05-07T07:11:16;101263.78;;;25.45;62.61
250;BME280;109;19.806;-70.704;2023-05-07T07:13:50;101256.75;;;25.42;62.36
250;BME280;109;19.806;-70.704;2023-05-07T07:16:17;101255.22;;;25.37;62.51
250;BME280;109;19.806;-70.704;2023-05-07T07:18:51;101254.38;;;25.36;62.29
250;BME280;109;19.806;-70.704;2023-05-07T07:21:18;101258.09;;;25.34;62.53
250;BME280;109;19.806;-70.704;2023-05-07T07:23:51;101246.44;;;25.35;62.78
250;BME280;109;19.806;-70.704;2023-05-07T07:26:19;101249.25;;;25.32;62.64
250;BME280;109;19.806;-70.704;2023-05-07T07:28:53;101243.03;;;25.31;62.50
250;BME280;109;19.806;-70.704;2023-05-07T07:31:21;101237.59;;;25.33;63.06
250;BME280;109;19.806;-70.704;2023-05-07T07:33:55;101242.09;;;25.32;63.12
250;BME280;109;19.806;-70.704;2023-05-07T07:36:22;101237.84;;;25.27;62.73
250;BME280;109;19.806;-70.704;2023-05-07T07:38:55;101237.03;;;25.25;62.82
250;BME280;109;19.806;-70.704;2023-05-07T07:41:43;101242.25;;;25.28;63.24
250;BME280;109;19.806;-70.704;2023-05-07T07:44:18;101241.84;;;25.18;63.10
250;BME280;109;19.806;-70.704;2023-05-07T07:46:50;101246.88;;;25.24;63.53
250;BME280;109;19.806;-70.704;2023-05-07T07:49:26;101251.31;;;25.25;63.55
250;BME280;109;19.806;-70.704;2023-05-07T07:51:54;101244.38;;;25.21;63.31
250;BME280;109;19.806;-70.704;2023-05-07T07:54:30;101252.97;;;25.28;63.17
250;BME280;109;19.806;-70.704;2023-05-07T07:56:58;101248.81;;;25.22;63.10
250;BME280;109;19.806;-70.704;2023-05-07T07:59:32;101248.41;;;25.11;63.02
250;BME280;109;19.806;-70.704;2023-05-07T08:01:59;101245.97;;;25.06;62.74
250;BME280;109;19.806;-70.704;2023-05-07T08:04:33;101243.16;;;25.09;62.27
250;BME280;109;19.806;-70.704;2023-05-07T08:07:02;101247.84;;;25.04;62.40
250;BME280;109;19.806;-70.704;2023-05-07T08:09:40;101253.47;;;24.98;61.98
250;BME280;109;19.806;-70.704;2023-05-07T08:12:14;101247.56;;;24.92;61.64
250;BME280;109;19.806;-70.704;2023-05-07T08:14:41;101255.59;;;24.92;61.96
250;BME280;109;19.806;-70.704;2023-05-07T08:17:15;101250.91;;;24.97;61.98
250;BME280;109;19.806;-70.704;2023-05-07T08:19:43;101257.47;;;24.90;61.71
250;BME280;109;19.806;-70.704;2023-05-07T08:22:16;101261.09;;;24.89;61.76
250;BME280;109;19.806;-70.704;2023-05-07T08:24:44;101264.06;;;24.83;62.02
250;BME280;109;19.806;-70.704;2023-05-07T08:27:17;101263.19;;;24.82;62.27
250;BME280;109;19.806;-70.704;2023-05-07T08:29:43;101261.22;;;24.86;62.29
250;BME280;109;19.806;-70.704;2023-05-07T08:32:21;101265.50;;;24.90;62.32
250;BME280;109;19.806;-70.704;2023-05-07T08:34:48;101254.94;;;24.87;62.27
250;BME280;109;19.806;-70.704;2023-05-07T08:37:28;101257.78;;;24.84;62.12
250;BME280;109;19.806;-70.704;2023-05-07T08:40:08;101247.06;;;24.84;62.03
250;BME280;109;19.806;-70.704;2023-05-07T08:42:36;101263.19;;;24.82;61.91
250;BME280;109;19.806;-70.704;2023-05-07T08:45:10;101259.72;;;24.80;61.83
250;BME280;109;19.806;-70.704;2023-05-07T08:47:52;101267.75;;;24.80;61.65
250;BME280;109;19.806;-70.704;2023-05-07T08:50:36;101259.13;;;24.73;61.68
250;BME280;109;19.806;-70.704;2023-05-07T08:53:10;101264.41;;;24.75;61.85
250;BME280;109;19.806;-70.704;2023-05-07T08:55:37;101267.13;;;24.73;62.02
250;BME280;109;19.806;-70.704;2023-05-07T08:58:11;101277.00;;;24.71;61.68
250;BME280;109;19.806;-70.704;2023-05-07T09:00:40;101275.38;;;24.69;61.72
250;BME280;109;19.806;-70.704;2023-05-07T09:03:15;101272.75;;;24.67;61.60
250;BME280;109;19.806;-70.704;2023-05-07T09:05:46;101270.34;;;24.61;61.90
250;BME280;109;19.806;-70.704;2023-05-07T09:08:25;101264.13;;;24.61;61.68
250;BME280;109;19.806;-70.704;2023-05-07T09:11:01;101282.91;;;24.59;61.58
250;BME280;109;19.806;-70.704;2023-05-07T09:13:29;101287.00;;;24.68;61.59
250;BME280;109;19.806;-70.704;2023-05-07T09:16:12;101283.66;;;24.63;61.60
250;BME280;109;19.806;-70.704;2023-05-07T09:18:46;101296.25;;;24.61;61.50
250;BME280;109;19.806;-70.704;2023-05-07T09:21:22;101296.97;;;24.64;61.77
250;BME280;109;19.806;-70.704;2023-05-07T09:23:59;101302.59;;;24.58;61.97
250;BME280;109;19.806;-70.704;2023-05-07T09:26:37;101290.38;;;24.53;61.79
250;BME280;109;19.806;-70.704;2023-05-07T09:29:13;101300.31;;;24.49;61.85
250;BME280;109;19.806;-70.704;2023-05-07T09:31:48;101302.06;;;24.50;61.78
250;BME280;109;19.806;-70.704;2023-05-07T09:34:16;101301.31;;;24.47;61.92
250;BME280;109;19.806;-70.704;2023-05-07T09:36:50;101305.03;;;24.44;62.01
250;BME280;109;19.806;-70.704;2023-05-07T09:39:17;101304.47;;;24.36;61.99
250;BME280;109;19.806;-70.704;2023-05-07T09:41:51;101312.63;;;24.33;61.83
250;BME280;109;19.806;-70.704;2023-05-07T09:44:34;101311.84;;;24.31;61.89
250;BME280;109;19.806;-70.704;2023-05-07T09:47:11;101312.72;;;24.31;62.25
250;BME280;109;19.806;-70.704;2023-05-07T09:49:56;101315.25;;;24.34;62.19
250;BME280;109;19.806;-70.704;2023-05-07T09:52:33;101322.56;;;24.31;61.99
250;BME280;109;19.806;-70.704;2023-05-07T09:55:10;101327.91;;;24.31;61.86
250;BME280;109;19.806;-70.704;2023-05-07T09:57:38;101344.88;;;24.30;61.91
250;BME280;109;19.806;-70.704;2023-05-07T10:00:12;101348.38;;;24.32;62.12
250;BME280;109;19.806;-70.704;2023-05-07T10:02:51;101348.50;;;24.29;61.93
250;BME280;109;19.806;-70.704;2023-05-07T10:05:34;101346.28;;;24.18;61.90
250;BME280;109;19.806;-70.704;2023-05-07T10:08:09;101340.13;;;24.16;61.97
250;BME280;109;19.806;-70.704;2023-05-07T10:10:45;101339.22;;;24.16;61.84
250;BME280;109;19.806;-70.704;2023-05-07T10:13:23;101344.69;;;24.13;61.90
250;BME280;109;19.806;-70.704;2023-05-07T10:15:59;101343.75;;;24.14;61.87
250;BME280;109;19.806;-70.704;2023-05-07T10:18:31;101350.03;;;24.13;61.98
250;BME280;109;19.806;-70.704;2023-05-07T10:21:17;101356.88;;;24.20;62.11
250;BME280;109;19.806;-70.704;2023-05-07T10:24:00;101353.22;;;24.22;61.73
250;BME280;109;19.806;-70.704;2023-05-07T10:26:38;101347.63;;;24.28;61.93
250;BME280;109;19.806;-70.704;2023-05-07T10:29:12;101350.91;;;24.35;61.68
250;BME280;109;19.806;-70.704;2023-05-07T10:41:28;101361.81;;;24.51;61.29
250;BME280;109;19.806;-70.704;2023-05-07T10:43:55;101362.44;;;24.57;60.78
250;BME280;109;19.806;-70.704;2023-05-07T10:46:27;101370.13;;;24.65;60.79
250;BME280;109;19.806;-70.704;2023-05-07T10:49:06;101363.63;;;24.70;60.35
250;BME280;109;19.806;-70.704;2023-05-07T10:51:40;101362.31;;;24.81;60.28
250;BME280;109;19.806;-70.704;2023-05-07T10:56:50;101363.78;;;24.88;60.51
250;BME280;109;19.806;-70.704;2023-05-07T11:02:03;101368.56;;;25.00;60.89
250;BME280;109;19.806;-70.704;2023-05-07T11:04:38;101377.16;;;25.08;61.02
250;BME280;109;19.806;-70.704;2023-05-07T11:07:25;101374.97;;;25.16;60.66
250;BME280;109;19.806;-70.704;2023-05-07T11:09:56;101384.16;;;25.31;60.64
250;BME280;109;19.806;-70.704;2023-05-07T11:12:51;101388.06;;;25.42;60.97
250;BME280;109;19.806;-70.704;2023-05-07T11:15:37;101391.91;;;25.56;60.57
250;BME280;109;19.806;-70.704;2023-05-07T11:18:15;101392.13;;;25.70;60.28
250;BME280;109;19.806;-70.704;2023-05-07T11:20:55;101398.22;;;25.92;59.96
250;BME280;109;19.806;-70.704;2023-05-07T11:26:41;101405.94;;;26.17;59.70
250;BME280;109;19.806;-70.704;2023-05-07T11:29:13;101416.38;;;26.23;59.66
250;BME280;109;19.806;-70.704;2023-05-07T11:31:41;101427.50;;;26.33;58.82
250;BME280;109;19.806;-70.704;2023-05-07T11:34:08;101427.16;;;26.40;59.03
250;BME280;109;19.806;-70.704;2023-05-07T11:36:37;101426.56;;;26.53;58.55
250;BME280;109;19.806;-70.704;2023-05-07T11:39:28;101421.56;;;26.62;58.19
250;BME280;109;19.806;-70.704;2023-05-07T11:41:55;101416.66;;;26.70;58.12
250;BME280;109;19.806;-70.704;2023-05-07T11:44:22;101422.34;;;26.81;57.88
250;BME280;109;19.806;-70.704;2023-05-07T11:46:48;101424.56;;;26.91;57.34
250;BME280;109;19.806;-70.704;2023-05-07T11:49:15;101424.94;;;26.83;56.78
250;BME280;109;19.806;-70.704;2023-05-07T11:51:42;101423.13;;;26.83;56.04
250;BME280;109;19.806;-70.704;2023-05-07T11:54:09;101423.25;;;26.99;55.65
250;BME280;109;19.806;-70.704;2023-05-07T11:56:37;101430.00;;;27.06;55.25
250;BME280;109;19.806;-70.704;2023-05-07T11:59:05;101433.41;;;27.10;55.37
250;BME280;109;19.806;-70.704;2023-05-07T12:01:32;101429.13;;;27.06;54.91
250;BME280;109;19.806;-70.704;2023-05-07T12:04:03;101423.88;;;27.04;54.65
250;BME280;109;19.806;-70.704;2023-05-07T12:06:31;101423.00;;;27.04;54.51
250;BME280;109;19.806;-70.704;2023-05-07T12:08:57;101427.25;;;26.91;54.23
250;BME280;109;19.806;-70.704;2023-05-07T12:11:25;101428.38;;;27.04;53.70
250;BME280;109;19.806;-70.704;2023-05-07T12:13:53;101432.22;;;27.15;53.34
250;BME280;109;19.806;-70.704;2023-05-07T12:16:20;101438.41;;;27.17;53.25
250;BME280;109;19.806;-70.704;2023-05-07T12:18:47;101440.06;;;27.36;53.23
250;BME280;109;19.806;-70.704;2023-05-07T12:21:14;101441.38;;;27.29;53.45
250;BME280;109;19.806;-70.704;2023-05-07T12:23:43;101439.13;;;27.54;53.52
250;BME280;109;19.806;-70.704;2023-05-07T12:26:10;101443.09;;;27.63;53.54
250;BME280;109;19.806;-70.704;2023-05-07T12:28:38;101450.41;;;27.76;52.99
250;BME280;109;19.806;-70.704;2023-05-07T12:31:05;101448.84;;;27.88;53.07
250;BME280;109;19.806;-70.704;2023-05-07T12:33:31;101446.44;;;27.99;53.34
250;BME280;109;19.806;-70.704;2023-05-07T12:36:03;101445.34;;;28.03;52.68
250;BME280;109;19.806;-70.704;2023-05-07T12:38:35;101447.66;;;28.09;52.88
250;BME280;109;19.806;-70.704;2023-05-07T12:41:02;101446.19;;;28.19;52.00
250;BME280;109;19.806;-70.704;2023-05-07T12:43:29;101449.13;;;28.31;52.31
250;BME280;109;19.806;-70.704;2023-05-07T12:45:57;101443.38;;;28.37;51.60
250;BME280;109;19.806;-70.704;2023-05-07T12:48:25;101443.19;;;28.40;50.63
250;BME280;109;19.806;-70.704;2023-05-07T12:50:55;101433.94;;;28.30;51.17
250;BME280;109;19.806;-70.704;2023-05-07T12:53:24;101440.94;;;28.48;51.62
250;BME280;109;19.806;-70.704;2023-05-07T12:55:53;101439.47;;;28.58;50.83
250;BME280;109;19.806;-70.704;2023-05-07T12:58:24;101445.34;;;28.65;51.14
250;BME280;109;19.806;-70.704;2023-05-07T13:00:51;101437.63;;;28.58;51.48
250;BME280;109;19.806;-70.704;2023-05-07T13:03:23;101435.84;;;28.73;51.81
250;BME280;109;19.806;-70.704;2023-05-07T13:05:51;101436.91;;;28.71;51.88
250;BME280;109;19.806;-70.704;2023-05-07T13:08:31;101438.44;;;28.75;51.60
250;BME280;109;19.806;-70.704;2023-05-07T13:11:00;101442.31;;;28.85;51.49
250;BME280;109;19.806;-70.704;2023-05-07T13:13:30;101449.84;;;28.64;52.06
250;BME280;109;19.806;-70.704;2023-05-07T13:15:57;101442.94;;;28.60;51.53
250;BME280;109;19.806;-70.704;2023-05-07T13:18:27;101448.28;;;28.90;51.72
250;BME280;109;19.806;-70.704;2023-05-07T13:20:53;101455.13;;;28.95;51.29
250;BME280;109;19.806;-70.704;2023-05-07T13:23:20;101454.28;;;28.95;50.88
250;BME280;109;19.806;-70.704;2023-05-07T13:25:48;101463.22;;;28.95;50.96
250;BME280;109;19.806;-70.704;2023-05-07T13:28:16;101453.63;;;29.06;50.84
250;BME280;109;19.806;-70.704;2023-05-07T13:30:44;101454.50;;;29.06;50.60
250;BME280;109;19.806;-70.704;2023-05-07T13:33:10;101454.91;;;29.28;50.55
250;BME280;109;19.806;-70.704;2023-05-07T13:35:39;101455.00;;;29.27;49.89
250;BME280;109;19.806;-70.704;2023-05-07T13:38:06;101455.31;;;29.22;50.36
250;BME280;109;19.806;-70.704;2023-05-07T13:40:32;101457.06;;;29.38;50.53
250;BME280;109;19.806;-70.704;2023-05-07T13:42:59;101458.22;;;29.48;50.54
250;BME280;109;19.806;-70.704;2023-05-07T13:45:30;101445.22;;;29.54;50.46
250;BME280;109;19.806;-70.704;2023-05-07T13:47:57;101447.34;;;29.49;51.31
250;BME280;109;19.806;-70.704;2023-05-07T13:50:24;101459.66;;;29.53;50.48
250;BME280;109;19.806;-70.704;2023-05-07T13:52:52;101459.00;;;29.50;52.05